Time;durP1;ratioP1;P1;durP2;ratioP2;P2;SDS_P1;SDS_P2;PMS_P1;PMS_P2;Temp;Humidity;BMP_temperature;BMP_pressure;BME280_temperature;BME280_humidity;BME280_pressure;Samples;Min_cycle;Max_cycle;Signal;HPM_P1;HPM_P2
2021/09/01 00:01:52;;;;;;;9.48;2.55;;;17.70;75.60;;;;;;5013643;28;20026;-73
2021/09/01 00:04:17;;;;;;;11.23;3.05;;;17.60;75.40;;;;;;5022772;28;20034;-74
2021/09/01 00:06:43;;;;;;;14.15;3.90;;;17.60;75.40;;;;;;5010433;28;20370;-72
2021/09/01 00:09:08;;;;;;;9.75;2.45;;;17.60;75.40;;;;;;5014384;28;20111;-75
2021/09/01 00:11:34;;;;;;;14.93;3.15;;;17.50;75.30;;;;;;4997329;28;20053;-75
2021/09/01 00:14:00;;;;;;;12.35;2.20;;;17.50;75.40;;;;;;5014396;28;20498;-75
2021/09/01 00:16:26;;;;;;;11.55;2.63;;;17.50;75.30;;;;;;5029858;28;20064;-74
2021/09/01 00:19:10;;;;;;;10.38;2.58;;;17.60;75.50;;;;;;4996656;28;20510;-75
2021/09/01 00:21:36;;;;;;;14.45;2.70;;;17.50;75.30;;;;;;5014389;28;20033;-74
2021/09/01 00:24:03;;;;;;;6.53;1.90;;;17.50;75.30;;;;;;5029637;28;20529;-75
2021/09/01 00:26:29;;;;;;;11.55;2.53;;;17.50;75.40;;;;;;5029616;28;20040;-75
2021/09/01 00:28:56;;;;;;;12.23;2.58;;;17.50;75.20;;;;;;5012861;28;20076;-75
2021/09/01 00:31:22;;;;;;;12.73;2.65;;;17.50;75.10;;;;;;5013181;28;20058;-75
2021/09/01 00:33:48;;;;;;;10.15;2.55;;;17.50;75.20;;;;;;5014109;28;20025;-75
2021/09/01 00:36:15;;;;;;;11.73;2.25;;;17.60;75.10;;;;;;5013119;28;20026;-75
2021/09/01 00:38:41;;;;;;;12.93;2.53;;;17.60;74.90;;;;;;5029415;28;20033;-75
2021/09/01 00:41:07;;;;;;;17.30;2.80;;;17.60;74.90;;;;;;5029056;28;20449;-75
2021/09/01 00:43:33;;;;;;;13.85;2.58;;;17.50;74.80;;;;;;5013029;28;21153;-74
2021/09/01 00:45:59;;;;;;;11.65;2.15;;;17.50;74.80;;;;;;4996484;28;20055;-75
2021/09/01 00:48:26;;;;;;;12.23;2.78;;;17.60;74.90;;;;;;5012636;28;20029;-75
2021/09/01 00:50:56;;;;;;;11.25;2.35;;;17.50;74.80;;;;;;5012880;28;20030;-75
2021/09/01 00:53:27;;;;;;;14.52;2.72;;;17.50;74.80;;;;;;5012604;28;20091;-76
2021/09/01 00:55:55;;;;;;;12.18;2.58;;;17.60;74.90;;;;;;5014159;28;20038;-75
2021/09/01 00:58:20;;;;;;;11.77;2.92;;;17.60;74.90;;;;;;5013731;28;20034;-74
2021/09/01 01:03:14;;;;;;;11.85;2.72;;;17.50;75.10;;;;;;5013115;28;20037;-75
2021/09/01 01:05:39;;;;;;;10.25;2.38;;;17.50;75.00;;;;;;5014003;28;20075;-74
2021/09/01 01:08:06;;;;;;;10.13;2.47;;;17.50;74.80;;;;;;5012565;28;20029;-75
2021/09/01 01:10:33;;;;;;;13.60;2.55;;;17.50;74.90;;;;;;5013977;28;20496;-74
2021/09/01 01:12:59;;;;;;;12.95;2.63;;;17.50;74.90;;;;;;5013813;28;20545;-74
2021/09/01 01:15:25;;;;;;;13.95;2.05;;;17.50;74.90;;;;;;5012669;28;20390;-75
2021/09/01 01:17:51;;;;;;;12.32;2.33;;;17.50;75.00;;;;;;5012552;28;20130;-76
2021/09/01 01:20:17;;;;;;;10.80;2.13;;;17.50;75.00;;;;;;5013617;28;20125;-75
2021/09/01 01:22:42;;;;;;;10.32;2.65;;;17.50;75.00;;;;;;5012881;28;20429;-75
2021/09/01 01:25:09;;;;;;;11.82;2.85;;;17.50;75.00;;;;;;5013765;28;20041;-75
2021/09/01 01:27:43;;;;;;;12.80;2.55;;;17.50;75.10;;;;;;5014223;28;20056;-75
2021/09/01 01:30:17;;;;;;;8.90;1.92;;;17.50;75.10;;;;;;5012382;28;20075;-75
2021/09/01 01:32:45;;;;;;;13.00;2.30;;;17.50;75.30;;;;;;5028820;28;20022;-75
2021/09/01 01:35:11;;;;;;;11.15;2.47;;;17.40;75.40;;;;;;5029003;28;20374;-75
2021/09/01 01:37:39;;;;;;;11.63;2.90;;;17.40;75.60;;;;;;5013556;28;20042;-75
2021/09/01 01:40:05;;;;;;;13.40;2.97;;;17.40;75.80;;;;;;5013304;28;20029;-75
2021/09/01 01:42:40;;;;;;;14.07;2.70;;;17.40;76.00;;;;;;5012214;28;20394;-75
2021/09/01 01:45:07;;;;;;;8.82;2.53;;;17.40;76.10;;;;;;5012405;28;20022;-74
2021/09/01 01:47:33;;;;;;;7.13;1.90;;;17.30;76.10;;;;;;5013321;28;20065;-75
2021/09/01 01:49:59;;;;;;;12.90;2.55;;;17.30;76.00;;;;;;5013149;28;20118;-75
2021/09/01 01:52:24;;;;;;;10.88;2.85;;;17.30;76.10;;;;;;5012122;28;20034;-75
2021/09/01 01:54:50;;;;;;;13.27;2.50;;;17.30;76.30;;;;;;5028710;28;20030;-75
2021/09/01 01:57:15;;;;;;;8.70;2.53;;;17.30;76.30;;;;;;4996113;28;20494;-75
2021/09/01 01:59:41;;;;;;;13.15;3.15;;;17.30;76.50;;;;;;5013148;28;20044;-75
2021/09/01 02:02:07;;;;;;;10.23;2.45;;;17.30;76.50;;;;;;5011904;28;20084;-75
2021/09/01 02:04:32;;;;;;;11.07;2.63;;;17.30;76.70;;;;;;5012242;28;20026;-75
2021/09/01 02:06:58;;;;;;;11.77;2.47;;;17.30;76.80;;;;;;5012040;28;20441;-75
2021/09/01 02:09:23;;;;;;;13.75;2.50;;;17.30;76.90;;;;;;5013692;28;20394;-75
2021/09/01 02:11:49;;;;;;;11.63;2.70;;;17.20;76.90;;;;;;5011995;28;20026;-75
2021/09/01 02:14:15;;;;;;;16.30;3.20;;;17.20;76.90;;;;;;5011952;28;20092;-76
2021/09/01 02:16:40;;;;;;;11.50;2.65;;;17.20;76.90;;;;;;5013154;28;20429;-76
2021/09/01 02:19:06;;;;;;;12.38;2.70;;;17.20;76.90;;;;;;5014893;28;20495;-75
2021/09/01 02:21:31;;;;;;;15.15;3.05;;;17.30;76.90;;;;;;5015831;28;20030;-75
2021/09/01 02:23:57;;;;;;;12.18;2.90;;;17.20;77.00;;;;;;5015660;28;20052;-75
2021/09/01 02:26:23;;;;;;;11.77;3.05;;;17.20;77.10;;;;;;4997119;28;20506;-76
2021/09/01 02:28:48;;;;;;;12.05;3.03;;;17.20;77.30;;;;;;5015337;28;20513;-76
2021/09/01 02:31:14;;;;;;;7.07;2.13;;;17.10;77.50;;;;;;5015272;28;20509;-76
2021/09/01 02:33:40;;;;;;;10.02;2.35;;;17.10;77.50;;;;;;4999214;28;20037;-76
2021/09/01 02:36:07;;;;;;;11.60;2.53;;;17.10;77.70;;;;;;5015567;28;20034;-75
2021/09/01 02:38:32;;;;;;;9.75;2.38;;;17.10;77.80;;;;;;5016340;28;20076;-76
2021/09/01 02:40:58;;;;;;;11.68;3.20;;;17.10;77.90;;;;;;4998777;28;20021;-75
2021/09/01 02:43:23;;;;;;;9.60;2.75;;;17.10;77.90;;;;;;5015469;28;20510;-75
2021/09/01 02:45:49;;;;;;;18.08;3.10;;;17.00;77.90;;;;;;5014983;28;20474;-76
2021/09/01 02:48:15;;;;;;;15.18;3.75;;;17.00;78.10;;;;;;5015295;28;20030;-75
2021/09/01 02:50:41;;;;;;;10.00;2.63;;;17.00;78.00;;;;;;4998984;28;20064;-76
2021/09/01 02:53:07;;;;;;;11.10;2.53;;;17.00;78.10;;;;;;5015917;28;20447;-75
2021/09/01 02:55:32;;;;;;;11.52;2.67;;;17.00;77.90;;;;;;4998418;28;20053;-76
2021/09/01 02:57:58;;;;;;;10.65;2.78;;;17.00;78.00;;;;;;5031734;28;20044;-76
2021/09/01 03:00:23;;;;;;;11.25;2.50;;;16.90;78.10;;;;;;5016238;28;20072;-76
2021/09/01 03:02:49;;;;;;;11.50;2.75;;;16.90;78.10;;;;;;4998486;28;20022;-75
2021/09/01 03:05:15;;;;;;;14.40;3.67;;;16.90;78.10;;;;;;5031004;28;20033;-76
2021/09/01 03:07:40;;;;;;;11.43;3.25;;;17.00;78.20;;;;;;4998151;28;20387;-75
2021/09/01 03:10:06;;;;;;;11.25;2.88;;;16.90;78.10;;;;;;5014622;28;20382;-75
2021/09/01 03:12:32;;;;;;;13.63;2.67;;;16.90;78.10;;;;;;5014768;28;20092;-78
2021/09/01 03:14:57;;;;;;;10.55;3.45;;;16.90;78.10;;;;;;5013025;28;20137;-78
2021/09/01 03:17:23;;;;;;;12.05;3.10;;;16.90;78.10;;;;;;4997094;28;20554;-78
2021/09/01 03:19:48;;;;;;;10.32;2.72;;;16.90;78.10;;;;;;4995896;28;20055;-77
2021/09/01 03:22:14;;;;;;;11.98;3.30;;;16.90;78.20;;;;;;5011378;28;20023;-77
2021/09/01 03:24:40;;;;;;;11.27;2.65;;;16.90;78.20;;;;;;4995947;28;20026;-77
2021/09/01 03:27:05;;;;;;;11.98;3.25;;;16.90;78.30;;;;;;5011178;28;20026;-78
2021/09/01 03:29:31;;;;;;;13.98;3.30;;;16.90;78.20;;;;;;5009907;28;20045;-78
2021/09/01 03:31:57;;;;;;;14.57;3.10;;;16.90;78.10;;;;;;5011322;28;20507;-78
2021/09/01 03:34:23;;;;;;;11.75;3.47;;;16.90;78.20;;;;;;4996387;28;20064;-78
2021/09/01 03:36:48;;;;;;;15.88;2.97;;;16.90;77.80;;;;;;5010949;28;20022;-78
2021/09/01 03:39:14;;;;;;;11.85;3.17;;;16.90;77.60;;;;;;4996033;28;20430;-78
2021/09/01 03:41:40;;;;;;;12.82;2.92;;;16.90;77.30;;;;;;4995787;28;20034;-78
2021/09/01 03:44:05;;;;;;;13.35;3.25;;;16.90;77.20;;;;;;4995699;28;20486;-77
2021/09/01 03:46:31;;;;;;;16.65;3.72;;;16.90;77.00;;;;;;5010885;28;20031;-78
2021/09/01 03:48:56;;;;;;;13.00;3.35;;;17.00;76.80;;;;;;4995531;28;20022;-78
2021/09/01 03:51:22;;;;;;;10.05;2.83;;;17.00;76.70;;;;;;5010753;28;20088;-77
2021/09/01 03:53:48;;;;;;;9.98;2.50;;;17.00;76.60;;;;;;4995666;28;20497;-77
2021/09/01 03:56:13;;;;;;;15.05;3.45;;;17.00;76.60;;;;;;5010463;28;20027;-78
2021/09/01 03:58:39;;;;;;;12.43;2.70;;;16.90;76.50;;;;;;4995673;28;20101;-78
2021/09/01 04:01:04;;;;;;;12.18;3.00;;;16.90;76.40;;;;;;5010278;28;20121;-77
2021/09/01 04:03:30;;;;;;;12.95;3.70;;;16.90;76.40;;;;;;5010270;28;20030;-79
2021/09/01 04:05:55;;;;;;;10.18;2.67;;;16.90;77.00;;;;;;4994182;28;20018;-78
2021/09/01 04:08:21;;;;;;;7.82;2.10;;;16.90;76.20;;;;;;5010457;28;20061;-78
2021/09/01 04:10:47;;;;;;;12.40;2.92;;;16.90;76.10;;;;;;5010475;28;20109;-77
2021/09/01 04:13:12;;;;;;;8.02;2.75;;;16.90;76.00;;;;;;5010333;28;20502;-78
2021/09/01 04:15:38;;;;;;;12.23;2.38;;;16.90;76.00;;;;;;5010346;28;20023;-78
2021/09/01 04:18:04;;;;;;;11.77;2.45;;;16.90;76.00;;;;;;4994795;28;20556;-77
2021/09/01 04:20:29;;;;;;;8.93;2.78;;;16.90;76.10;;;;;;5009844;28;20076;-77
2021/09/01 04:22:55;;;;;;;11.93;2.13;;;16.90;76.00;;;;;;5009998;28;20033;-77
2021/09/01 04:25:20;;;;;;;8.80;2.70;;;16.90;76.00;;;;;;4993432;28;20023;-77
2021/09/01 04:27:46;;;;;;;14.13;3.45;;;16.90;76.00;;;;;;5009930;28;20050;-77
2021/09/01 04:30:12;;;;;;;11.48;2.70;;;16.90;75.90;;;;;;5009934;28;20061;-77
2021/09/01 04:32:38;;;;;;;9.20;2.47;;;16.90;75.90;;;;;;5009982;28;20027;-78
2021/09/01 04:35:04;;;;;;;12.38;3.05;;;16.90;76.00;;;;;;5010213;28;20113;-77
2021/09/01 04:37:29;;;;;;;8.45;2.33;;;16.90;75.80;;;;;;5010031;28;20077;-77
2021/09/01 04:39:55;;;;;;;7.78;2.05;;;16.90;75.70;;;;;;5010146;28;20065;-77
2021/09/01 04:42:20;;;;;;;8.35;2.33;;;16.90;75.60;;;;;;5009263;28;20551;-77
2021/09/01 04:44:46;;;;;;;9.45;2.22;;;16.90;75.50;;;;;;4994346;28;20471;-77
2021/09/01 04:47:12;;;;;;;10.57;2.30;;;16.90;75.30;;;;;;5009563;28;20027;-77
2021/09/01 04:49:37;;;;;;;8.68;2.67;;;16.90;75.30;;;;;;4994588;28;20530;-77
2021/09/01 04:52:03;;;;;;;8.43;2.38;;;16.90;75.20;;;;;;5000832;28;20026;-77
2021/09/01 04:54:31;;;;;;;8.13;1.73;;;16.90;75.10;;;;;;5012672;28;20022;-77
2021/09/01 04:56:57;;;;;;;7.25;1.90;;;16.90;75.10;;;;;;5028735;28;20030;-77
2021/09/01 04:59:23;;;;;;;10.73;2.47;;;16.90;75.10;;;;;;4995789;28;20029;-77
2021/09/01 05:01:48;;;;;;;11.40;3.03;;;16.90;75.10;;;;;;5013353;28;20026;-77
2021/09/01 05:04:14;;;;;;;7.45;2.00;;;16.90;75.10;;;;;;5003552;28;20030;-77
2021/09/01 05:06:40;;;;;;;8.35;2.50;;;16.90;75.10;;;;;;5011914;28;20066;-77
2021/09/01 05:09:05;;;;;;;8.85;2.17;;;16.90;75.10;;;;;;5011981;28;20022;-77
2021/09/01 05:11:32;;;;;;;8.18;2.25;;;17.00;75.20;;;;;;5012401;28;20438;-77
2021/09/01 05:13:57;;;;;;;12.93;2.55;;;16.90;75.10;;;;;;4996295;28;20562;-77
2021/09/01 05:16:23;;;;;;;8.70;2.30;;;17.00;75.10;;;;;;5012447;28;20120;-77
2021/09/01 05:18:49;;;;;;;7.57;2.30;;;17.00;75.10;;;;;;5012277;28;20054;-77
2021/09/01 05:21:18;;;;;;;8.40;2.88;;;17.00;75.10;;;;;;5013482;28;20390;-77
2021/09/01 05:23:45;;;;;;;9.48;2.45;;;17.00;75.10;;;;;;5013823;28;20034;-77
2021/09/01 05:26:14;;;;;;;10.52;2.40;;;17.00;75.20;;;;;;5013446;28;20125;-77
2021/09/01 05:28:40;;;;;;;7.82;2.25;;;17.00;75.10;;;;;;5028710;28;20034;-77
2021/09/01 05:31:07;;;;;;;7.53;1.92;;;17.00;75.10;;;;;;5012577;28;20084;-77
2021/09/01 05:33:40;;;;;;;6.95;1.90;;;17.00;75.10;;;;;;5013739;28;20033;-77
2021/09/01 05:36:06;;;;;;;14.27;2.73;;;16.90;75.20;;;;;;5013788;28;20068;-77
2021/09/01 05:38:33;;;;;;;13.80;2.55;;;16.90;75.30;;;;;;5012395;28;20451;-77
2021/09/01 05:41:00;;;;;;;13.05;2.65;;;16.90;75.40;;;;;;5028814;28;20061;-77
2021/09/01 05:43:26;;;;;;;11.18;2.53;;;16.90;75.50;;;;;;5014910;28;20030;-77
2021/09/01 05:45:52;;;;;;;10.95;2.30;;;16.90;75.40;;;;;;5031864;28;20044;-77
2021/09/01 05:48:22;;;;;;;9.52;2.10;;;16.90;75.40;;;;;;5033058;28;20029;-76
2021/09/01 05:50:53;;;;;;;9.77;2.50;;;16.90;75.40;;;;;;5031829;28;20482;-77
2021/09/01 05:53:19;;;;;;;10.38;2.28;;;16.90;75.40;;;;;;5035060;28;20083;-77
2021/09/01 05:55:49;;;;;;;8.45;2.30;;;16.90;75.20;;;;;;5036714;28;20362;-77
2021/09/01 05:58:17;;;;;;;10.05;2.20;;;17.00;75.20;;;;;;5036801;28;20052;-77
2021/09/01 06:00:44;;;;;;;9.88;1.92;;;17.00;75.20;;;;;;5028884;28;20390;-77
2021/09/01 06:03:18;;;;;;;9.57;2.28;;;17.10;75.20;;;;;;5016007;28;20014;-77
2021/09/01 06:05:45;;;;;;;6.70;2.13;;;17.00;75.00;;;;;;5016530;28;20029;-77
2021/09/01 06:08:12;;;;;;;11.57;2.13;;;17.10;75.10;;;;;;5017049;28;20053;-77
2021/09/01 06:10:38;;;;;;;8.10;2.40;;;17.10;75.00;;;;;;5017239;28;20037;-77
2021/09/01 06:13:11;;;;;;;8.77;2.55;;;17.10;75.00;;;;;;5015697;28;20030;-77
2021/09/01 06:15:39;;;;;;;9.27;1.80;;;17.10;75.30;;;;;;4999993;28;20034;-77
2021/09/01 06:18:06;;;;;;;12.95;2.00;;;17.20;75.40;;;;;;5016688;28;20461;-77
2021/09/01 06:20:32;;;;;;;7.68;1.83;;;17.20;75.30;;;;;;5031784;28;20494;-77
2021/09/01 06:22:59;;;;;;;5.15;2.10;;;17.10;75.40;;;;;;5029655;28;20034;-77
2021/09/01 06:25:25;;;;;;;8.70;1.92;;;17.20;75.50;;;;;;5015270;28;20482;-77
2021/09/01 06:27:51;;;;;;;7.40;1.70;;;17.20;75.50;;;;;;5016633;28;20025;-77
2021/09/01 06:30:17;;;;;;;9.15;1.88;;;17.20;75.50;;;;;;5015567;28;20344;-77
2021/09/01 06:32:42;;;;;;;6.88;1.98;;;17.20;75.40;;;;;;5015783;28;20041;-77
2021/09/01 06:35:09;;;;;;;9.20;2.30;;;17.20;75.50;;;;;;4998781;28;20022;-77
2021/09/01 06:37:36;;;;;;;6.15;2.03;;;17.20;75.50;;;;;;5015570;28;20032;-78
2021/09/01 06:40:03;;;;;;;10.27;2.00;;;17.20;75.40;;;;;;5015150;28;20479;-77
2021/09/01 06:42:28;;;;;;;7.93;2.33;;;17.20;75.30;;;;;;5015411;28;20109;-77
2021/09/01 06:44:54;;;;;;;9.80;2.28;;;17.20;75.30;;;;;;4998548;28;20117;-77
2021/09/01 06:47:20;;;;;;;10.55;2.08;;;17.20;75.40;;;;;;4998618;28;20073;-78
2021/09/01 06:49:46;;;;;;;9.98;2.00;;;17.20;75.70;;;;;;5016109;28;20026;-76
2021/09/01 06:52:11;;;;;;;7.22;2.38;;;17.20;75.70;;;;;;5015196;28;20030;-76
2021/09/01 06:54:37;;;;;;;7.82;1.90;;;17.30;75.80;;;;;;5014766;28;20489;-76
2021/09/01 06:57:03;;;;;;;13.07;2.47;;;17.30;75.80;;;;;;5014898;28;20030;-76
2021/09/01 06:59:29;;;;;;;8.20;2.53;;;17.20;75.70;;;;;;5014540;28;20045;-76
2021/09/01 07:01:54;;;;;;;10.18;3.03;;;17.30;75.70;;;;;;5014635;28;20038;-76
2021/09/01 07:04:20;;;;;;;11.07;2.53;;;17.30;75.60;;;;;;4998511;28;20036;-76
2021/09/01 07:06:45;;;;;;;7.00;2.05;;;17.30;75.70;;;;;;5016170;28;20033;-76
2021/09/01 07:09:12;;;;;;;10.88;2.60;;;17.40;75.90;;;;;;5016136;28;20072;-76
2021/09/01 07:11:38;;;;;;;6.65;1.73;;;17.40;75.90;;;;;;5014803;28;20034;-76
2021/09/01 07:14:03;;;;;;;8.68;2.40;;;17.40;75.90;;;;;;5015888;28;20368;-76
2021/09/01 07:16:29;;;;;;;9.57;2.47;;;17.40;76.00;;;;;;5014376;28;20056;-75
2021/09/01 07:18:55;;;;;;;9.00;2.72;;;17.50;76.10;;;;;;5014597;28;20465;-76
2021/09/01 07:21:20;;;;;;;8.40;2.40;;;17.50;76.80;;;;;;5014320;28;20034;-75
2021/09/01 07:23:46;;;;;;;9.20;2.42;;;17.50;76.10;;;;;;5015694;28;20037;-76
2021/09/01 07:26:12;;;;;;;8.93;2.58;;;17.50;76.10;;;;;;5014503;28;20076;-75
2021/09/01 07:28:40;;;;;;;9.65;2.38;;;17.60;76.00;;;;;;4998016;28;20410;-75
2021/09/01 07:31:07;;;;;;;10.93;3.38;;;17.60;75.90;;;;;;5014232;28;20028;-76
2021/09/01 07:33:32;;;;;;;6.53;2.22;;;17.60;75.80;;;;;;5013950;28;20017;-76
2021/09/01 07:35:59;;;;;;;7.95;2.15;;;17.70;75.90;;;;;;5013952;28;20389;-76
2021/09/01 07:38:25;;;;;;;6.80;2.17;;;17.70;75.90;;;;;;5015659;28;20109;-76
2021/09/01 07:40:52;;;;;;;8.65;2.72;;;17.70;75.70;;;;;;5013881;28;20446;-76
2021/09/01 07:43:19;;;;;;;12.20;2.33;;;17.70;75.60;;;;;;5015825;28;20045;-76
2021/09/01 07:45:45;;;;;;;10.95;2.50;;;17.80;75.50;;;;;;5013697;28;20021;-76
2021/09/01 07:48:15;;;;;;;9.32;2.28;;;17.80;75.40;;;;;;4996264;28;20022;-76
2021/09/01 07:50:42;;;;;;;9.55;2.83;;;17.80;75.20;;;;;;5013713;28;20021;-76
2021/09/01 07:53:08;;;;;;;8.82;2.97;;;17.80;75.00;;;;;;5000164;28;20034;-76
2021/09/01 07:55:33;;;;;;;8.60;2.20;;;17.80;74.80;;;;;;5015169;28;20034;-76
2021/09/01 07:57:59;;;;;;;11.30;3.03;;;17.80;74.80;;;;;;5014933;28;20109;-76
2021/09/01 08:00:25;;;;;;;11.00;2.50;;;17.90;74.80;;;;;;5013329;28;20478;-76
2021/09/01 08:02:52;;;;;;;9.10;2.38;;;17.90;74.30;;;;;;5014943;28;20026;-76
2021/09/01 08:05:18;;;;;;;7.63;2.10;;;17.90;73.90;;;;;;5013609;28;20030;-76
2021/09/01 08:07:44;;;;;;;9.45;2.30;;;17.90;74.30;;;;;;4997449;28;20471;-76
2021/09/01 08:10:10;;;;;;;10.15;2.45;;;17.90;73.70;;;;;;4996088;28;20080;-75
2021/09/01 08:12:36;;;;;;;10.57;2.42;;;17.90;73.60;;;;;;5014875;28;20034;-75
2021/09/01 08:15:01;;;;;;;8.45;2.55;;;18.00;73.40;;;;;;5013309;28;20482;-75
2021/09/01 08:17:28;;;;;;;9.07;2.50;;;18.10;73.30;;;;;;5013075;28;20033;-77
2021/09/01 08:19:54;;;;;;;10.18;2.55;;;18.10;73.10;;;;;;4996866;28;20056;-77
2021/09/01 08:22:19;;;;;;;8.35;2.40;;;18.10;73.10;;;;;;5014474;28;20026;-77
2021/09/01 08:24:45;;;;;;;9.80;2.50;;;18.20;73.20;;;;;;5013245;28;20032;-77
2021/09/01 08:27:12;;;;;;;8.85;2.08;;;18.20;73.20;;;;;;4996888;28;20026;-77
2021/09/01 08:29:38;;;;;;;9.40;2.25;;;18.30;73.40;;;;;;5014351;28;20033;-78
2021/09/01 08:32:05;;;;;;;14.43;2.75;;;18.40;73.40;;;;;;5013578;28;20026;-77
2021/09/01 08:34:31;;;;;;;7.32;2.40;;;18.50;73.10;;;;;;5013025;28;20026;-77
2021/09/01 08:36:59;;;;;;;7.75;2.15;;;18.70;73.00;;;;;;5014757;28;20033;-77
2021/09/01 08:39:25;;;;;;;8.82;2.00;;;18.80;72.70;;;;;;5013262;28;20033;-75
2021/09/01 08:41:51;;;;;;;8.80;2.42;;;18.90;72.20;;;;;;5013175;28;20034;-75
2021/09/01 08:44:17;;;;;;;7.55;1.98;;;19.00;71.80;;;;;;5013887;28;20030;-76
2021/09/01 08:46:46;;;;;;;8.20;1.90;;;19.10;71.20;;;;;;5012651;28;20022;-76
2021/09/01 08:49:13;;;;;;;8.70;2.40;;;19.20;70.70;;;;;;5014275;28;20022;-76
2021/09/01 08:51:39;;;;;;;8.75;2.13;;;19.30;70.50;;;;;;5012852;28;20021;-76
2021/09/01 08:54:05;;;;;;;8.30;2.03;;;19.40;70.20;;;;;;4980132;28;20033;-76
2021/09/01 08:56:30;;;;;;;11.18;2.88;;;19.40;69.60;;;;;;5014006;28;20029;-76
2021/09/01 08:58:56;;;;;;;11.30;2.50;;;19.50;69.20;;;;;;4996438;28;20025;-76
2021/09/01 09:01:43;;;;;;;9.18;1.92;;;19.60;69.60;;;;;;5012512;28;20508;-76
2021/09/01 09:04:14;;;;;;;5.88;1.52;;;19.60;68.50;;;;;;5012854;28;20053;-76
2021/09/01 09:06:53;;;;;;;5.75;1.85;;;19.60;68.10;;;;;;5013899;28;20026;-76
2021/09/01 09:09:21;;;;;;;9.15;2.15;;;19.70;67.90;;;;;;5013889;28;20018;-76
2021/09/01 09:11:48;;;;;;;9.55;2.50;;;19.70;67.80;;;;;;5028887;28;20064;-76
2021/09/01 09:14:22;;;;;;;8.23;2.08;;;19.70;67.60;;;;;;5012556;28;20117;-76
2021/09/01 09:17:17;;;;;;;6.68;1.95;;;19.80;67.50;;;;;;5012905;28;20385;-76
2021/09/01 09:19:51;;;;;;;8.48;2.33;;;19.80;67.30;;;;;;5012597;28;20082;-77
2021/09/01 09:22:31;;;;;;;5.82;1.52;;;19.80;67.30;;;;;;5013881;28;20061;-77
2021/09/01 09:25:15;;;;;;;7.28;1.55;;;19.90;67.20;;;;;;5013400;28;20088;-77
2021/09/01 09:27:48;;;;;;;7.95;2.15;;;19.90;67.10;;;;;;5014522;28;20105;-77
2021/09/01 09:30:20;;;;;;;6.27;1.83;;;20.00;67.10;;;;;;5017776;28;20033;-77
2021/09/01 09:33:07;;;;;;;7.78;2.17;;;20.10;67.00;;;;;;5016272;28;20037;-77
2021/09/01 09:35:47;;;;;;;12.18;2.42;;;20.10;67.00;;;;;;5016210;28;20028;-77
2021/09/01 09:38:15;;;;;;;10.52;2.08;;;20.20;66.80;;;;;;5016582;28;20041;-77
2021/09/01 09:40:41;;;;;;;9.77;2.05;;;20.30;66.50;;;;;;5016195;28;20025;-77
2021/09/01 09:43:15;;;;;;;7.35;1.95;;;20.40;66.30;;;;;;5016441;28;20030;-77
2021/09/01 09:45:42;;;;;;;8.35;1.92;;;20.40;66.30;;;;;;5016334;28;20017;-77
2021/09/01 09:48:08;;;;;;;7.20;1.80;;;20.40;65.90;;;;;;5016593;28;20038;-77
2021/09/01 09:50:34;;;;;;;8.60;2.10;;;20.50;65.70;;;;;;5016379;28;20033;-77
2021/09/01 09:52:59;;;;;;;8.10;2.33;;;20.50;65.40;;;;;;5016094;28;20390;-77
2021/09/01 09:55:25;;;;;;;7.57;2.28;;;20.60;65.00;;;;;;5016816;28;20088;-77
2021/09/01 09:57:57;;;;;;;7.10;2.25;;;20.60;64.80;;;;;;5016104;28;20081;-77
2021/09/01 10:00:25;;;;;;;6.95;1.88;;;20.60;64.80;;;;;;5015590;28;20108;-77
2021/09/01 10:02:51;;;;;;;8.95;1.63;;;20.60;64.80;;;;;;5017022;28;20041;-77
2021/09/01 10:05:18;;;;;;;5.93;1.85;;;20.60;65.20;;;;;;4999377;28;20066;-77
2021/09/01 10:07:44;;;;;;;7.50;2.05;;;20.70;65.10;;;;;;5016036;28;20026;-77
2021/09/01 10:10:11;;;;;;;6.40;1.88;;;20.70;64.80;;;;;;5016752;28;20033;-77
2021/09/01 10:12:42;;;;;;;7.43;2.15;;;20.80;64.60;;;;;;5015585;28;20026;-77
2021/09/01 10:15:11;;;;;;;8.82;2.03;;;20.80;64.60;;;;;;5015437;28;20042;-77
2021/09/01 10:17:39;;;;;;;7.13;1.83;;;20.80;64.20;;;;;;5016538;28;20056;-77
2021/09/01 10:20:08;;;;;;;9.50;2.20;;;20.80;64.20;;;;;;5015337;28;20037;-77
2021/09/01 10:22:33;;;;;;;8.95;2.53;;;20.80;64.00;;;;;;5016538;28;20057;-77
2021/09/01 10:24:59;;;;;;;11.23;2.80;;;20.70;64.00;;;;;;5015366;28;20022;-77
2021/09/01 10:27:28;;;;;;;6.85;2.13;;;20.60;64.10;;;;;;5016358;28;20026;-77
2021/09/01 10:30:06;;;;;;;11.85;2.58;;;20.60;64.30;;;;;;5015180;28;20021;-77
2021/09/01 10:32:53;;;;;;;8.38;2.22;;;20.50;64.40;;;;;;5016656;28;20033;-77
2021/09/01 10:35:18;;;;;;;9.18;2.20;;;20.40;64.50;;;;;;4999348;28;20037;-77
2021/09/01 10:37:51;;;;;;;10.68;2.60;;;20.50;65.30;;;;;;5015043;28;20390;-77
2021/09/01 10:40:23;;;;;;;6.22;1.67;;;20.50;64.60;;;;;;5014471;28;20034;-77
2021/09/01 10:42:57;;;;;;;9.95;2.63;;;20.50;64.50;;;;;;5016056;28;20029;-77
2021/09/01 10:45:31;;;;;;;7.65;1.98;;;20.50;64.50;;;;;;5016464;28;20034;-77
2021/09/01 10:48:01;;;;;;;10.07;2.75;;;20.50;64.50;;;;;;5016517;28;20125;-77
2021/09/01 10:50:35;;;;;;;10.40;2.08;;;20.50;64.60;;;;;;5016522;28;20030;-78
2021/09/01 10:53:19;;;;;;;8.93;2.55;;;20.60;64.70;;;;;;5014239;28;20021;-75
2021/09/01 10:56:05;;;;;;;6.10;2.28;;;20.70;64.60;;;;;;5015008;28;20048;-76
2021/09/01 10:58:40;;;;;;;5.88;2.03;;;20.90;64.40;;;;;;5014751;28;20065;-76
2021/09/01 11:01:13;;;;;;;9.82;3.15;;;21.00;64.10;;;;;;5015807;28;20076;-76
2021/09/01 11:03:48;;;;;;;11.25;3.00;;;21.00;63.80;;;;;;5014955;28;20095;-76
2021/09/01 11:06:24;;;;;;;9.25;2.60;;;21.00;63.80;;;;;;5015805;28;20097;-76
2021/09/01 11:09:06;;;;;;;6.95;2.40;;;21.00;63.90;;;;;;5015698;28;20030;-76
2021/09/01 11:11:55;;;;;;;7.90;2.20;;;21.10;63.90;;;;;;5015554;28;20103;-76
2021/09/01 11:14:42;;;;;;;12.20;2.70;;;21.10;63.80;;;;;;5016006;28;20092;-76
2021/09/01 11:17:13;;;;;;;11.85;2.40;;;21.10;63.60;;;;;;5016405;28;20030;-77
2021/09/01 11:19:41;;;;;;;10.43;2.25;;;21.10;63.70;;;;;;5015838;28;20545;-76
2021/09/01 11:22:12;;;;;;;8.20;2.25;;;21.10;63.60;;;;;;5014369;28;20048;-77
2021/09/01 11:24:52;;;;;;;9.05;2.70;;;21.10;63.60;;;;;;5015551;28;20470;-76
2021/09/01 11:27:23;;;;;;;12.65;2.40;;;21.10;63.60;;;;;;5015389;28;20088;-76
2021/09/01 11:29:49;;;;;;;8.90;2.58;;;21.00;63.80;;;;;;5014166;28;20029;-76
2021/09/01 11:32:18;;;;;;;8.13;1.83;;;21.00;64.00;;;;;;5014061;28;20022;-76
2021/09/01 11:34:44;;;;;;;6.60;2.42;;;21.00;63.50;;;;;;5015396;28;20045;-77
2021/09/01 11:37:10;;;;;;;6.88;1.80;;;21.00;63.40;;;;;;5013749;28;20050;-76
2021/09/01 11:39:47;;;;;;;7.53;1.60;;;21.00;63.10;;;;;;5015360;28;20481;-76
2021/09/01 11:42:13;;;;;;;6.68;2.08;;;21.00;62.90;;;;;;5015089;28;20485;-75
2021/09/01 11:44:40;;;;;;;9.55;2.25;;;21.10;62.90;;;;;;4998030;28;20049;-76
2021/09/01 11:47:13;;;;;;;9.20;2.22;;;21.10;62.70;;;;;;5014148;28;20034;-76
2021/09/01 11:49:38;;;;;;;6.33;1.80;;;21.20;62.50;;;;;;5014180;28;20068;-77
2021/09/01 11:52:04;;;;;;;7.82;1.90;;;21.20;62.30;;;;;;5014012;28;20034;-76
2021/09/01 11:54:30;;;;;;;7.70;1.85;;;21.20;62.30;;;;;;5013056;28;20026;-77
2021/09/01 11:56:55;;;;;;;8.43;2.40;;;21.30;63.10;;;;;;5013152;28;20120;-77
2021/09/01 11:59:23;;;;;;;8.95;2.33;;;21.30;62.30;;;;;;5014486;28;20107;-77
2021/09/01 12:01:58;;;;;;;6.85;1.85;;;21.40;62.30;;;;;;5014147;28;20080;-77
2021/09/01 12:04:24;;;;;;;7.50;2.25;;;21.50;62.40;;;;;;5014711;28;20029;-76
2021/09/01 12:06:54;;;;;;;8.95;2.13;;;21.50;62.30;;;;;;5014609;28;20037;-77
2021/09/01 12:09:22;;;;;;;7.57;2.10;;;21.60;62.30;;;;;;5014778;28;20029;-77
2021/09/01 12:11:53;;;;;;;7.38;1.95;;;21.60;62.20;;;;;;5013566;28;20064;-76
2021/09/01 12:14:28;;;;;;;7.70;1.83;;;21.60;62.10;;;;;;5013563;28;20025;-76
2021/09/01 12:17:13;;;;;;;11.75;2.58;;;21.60;61.90;;;;;;5014791;28;20041;-77
2021/09/01 12:19:56;;;;;;;6.63;2.28;;;21.60;61.70;;;;;;5013139;28;20053;-77
2021/09/01 12:22:33;;;;;;;5.40;1.55;;;21.60;61.70;;;;;;4997390;28;20037;-76
2021/09/01 12:25:14;;;;;;;9.23;2.60;;;21.60;61.80;;;;;;5014620;28;20029;-76
2021/09/01 12:27:58;;;;;;;6.15;1.52;;;21.60;61.90;;;;;;5013670;28;20021;-76
2021/09/01 12:30:26;;;;;;;;;;;21.60;61.90;;;;;;5014920;28;20113;-77
2021/09/01 12:32:59;;;;;;;6.03;1.90;;;21.50;62.00;;;;;;5012905;28;19905;-77
2021/09/01 12:35:27;;;;;;;7.82;1.75;;;21.40;62.00;;;;;;5013568;28;20363;-76
2021/09/01 12:37:57;;;;;;;8.35;1.92;;;21.50;62.20;;;;;;5014220;28;20034;-77
2021/09/01 12:40:28;;;;;;;8.35;1.63;;;21.40;62.10;;;;;;5012828;28;20120;-75
2021/09/01 12:43:06;;;;;;;8.48;1.80;;;21.40;62.30;;;;;;5014355;28;20482;-76
2021/09/01 12:45:32;;;;;;;7.25;2.45;;;21.50;62.40;;;;;;5014251;28;20022;-77
2021/09/01 12:48:02;;;;;;;7.93;1.77;;;21.50;63.00;;;;;;5012778;28;20478;-77
2021/09/01 12:50:28;;;;;;;6.20;1.83;;;21.60;62.30;;;;;;5013901;28;20374;-76